Mid Fortune — ZGCG8 — position and weather

sailwx.info

Track history (hours):
 
Tides and Currents Weather Stations Pressure Air Temp Water Temp Dewpoint Dewpoint Depression Visibility Wind Speed Wind Dir Waves Ship Positions

Mid Fortune

Last reported at 2015-May-23 21:33 UTC. Time now 2015-May-28 01:55 UTC.
Position N 31°17' E 032°20'.

Length 147 m; draft 9.7 m.

Type: Tanker. MMSI: 319182000.

Date/timePositionNaut miles runAvg speedWind from/ knotsBaromVisibWave heightAir tempDewpointWater temp
2015-May-23 21:33N 31°17' E 032°20'5 5.2
2015-May-23 20:33N 31°22' E 032°19'1 0.5
2015-May-23 19:31N 31°21' E 032°18'0 0.0
2015-May-23 18:29N 31°21' E 032°18'0 0.0
2015-May-23 17:28N 31°21' E 032°18'0 0.0
2015-May-23 16:31N 31°21' E 032°18'0 0.0
2015-May-23 15:32N 31°21' E 032°18'0 0.0
2015-May-23 14:13N 31°21' E 032°18'0 0.1
2015-May-23 13:33N 31°22' E 032°18'7 5.8
2015-May-23 12:25N 31°28' E 032°15'1113.4
2015-May-23 11:33N 31°37' E 032°07'1414.3
2015-May-23 10:33N 31°47' E 031°55'1514.7
2015-May-23 09:33N 31°55' E 031°40'4314.1
2015-May-23 06:30N 32°17' E 030°56'1313.6
2015-May-23 05:33N 32°22' E 030°43'1414.1
2015-May-23 04:33N 32°28' E 030°28'1914.3
2015-May-23 03:15N 32°37' E 030°08'1014.1
2015-May-23 02:33N 32°41' E 029°57'1414.0
2015-May-23 01:33N 32°47' E 029°42'1414.0
2015-May-23 00:32N 32°54' E 029°27'59414.1
2015-May-21 06:26N 35°32' E 017°55'1213.8
2015-May-21 05:33N 35°35' E 017°40'1613.4
2015-May-21 04:21N 35°39' E 017°21'1213.4
2015-May-21 03:26N 35°42' E 017°06'1213.4
2015-May-21 02:33N 35°45' E 016°52'1313.5
2015-May-21 01:33N 35°48' E 016°36'1313.4
2015-May-21 00:33N 35°52' E 016°20'1413.7
2015-May-20 23:33N 35°55' E 016°04'1413.7
2015-May-20 22:33N 35°59' E 015°48'1414.0
2015-May-20 21:33N 36°02' E 015°31'1414.4
2015-May-20 20:33N 36°06' E 015°14'1414.0
2015-May-20 19:33N 36°09' E 014°57'1413.8
2015-May-20 18:33N 36°13' E 014°40'1413.7
2015-May-20 17:33N 36°16' E 014°24'1413.9
2015-May-20 16:33N 36°20' E 014°07'1414.1
2015-May-20 15:33N 36°23' E 013°50'1414.1
2015-May-20 14:33N 36°26' E 013°33'1413.6
2015-May-20 13:33N 36°30' E 013°17'1313.5
2015-May-20 12:33N 36°35' E 013°01'2013.5
2015-May-20 11:06N 36°44' E 012°39'16714.0
2015-May-19 23:08N 37°38' E 009°21'2314.1
2015-May-19 21:30N 37°40' E 008°52'1212.9
2015-May-19 20:34N 37°39' E 008°36'1413.3
2015-May-19 19:33N 37°38' E 008°19'3014.6
2015-May-19 17:29N 37°36' E 007°42'16413.7
2015-May-19 05:32N 37°24' E 004°16'1514.9
2015-May-19 04:31N 37°23' E 003°56'4314.4
2015-May-19 01:30N 37°18' E 003°02'4914.3
2015-May-18 22:05N 37°09' E 002°02'815.0
2015-May-18 21:33N 37°07' E 001°52'1714.2
2015-May-18 20:20N 37°03' E 001°31'1113.4
2015-May-18 19:33N 37°00' E 001°18'1413.3
2015-May-18 18:28N 36°57' E 001°01'1513.1
2015-May-18 17:19N 36°54' E 000°42'1213.0
2015-May-18 16:26N 36°52' E 000°28'1112.9
2015-May-18 15:33N 36°49' E 000°14'1312.9
2015-May-18 14:33N 36°46' W 000°02'3112.9
2015-May-18 12:07N 36°39' W 000°39'3513.4
2015-May-18 09:30N 36°31' W 001°22'3912.8
2015-May-18 06:28N 36°22' W 002°09'1213.0
2015-May-18 05:33N 36°20' W 002°24'1212.3
2015-May-18 04:33N 36°18' W 002°39'1312.2
2015-May-18 03:29N 36°17' W 002°55'1212.3
2015-May-18 02:33N 36°16' W 003°09'9813.8
2015-May-17 19:29N 36°00' W 005°09'1314.7
2015-May-17 18:34N 35°58' W 005°25'13912.6
2015-May-17 07:28N 36°17' W 008°16'2612.3
2015-May-17 05:21N 36°23' W 008°47'1412.4
2015-May-17 04:16N 36°27' W 009°04'1112.9
2015-May-17 03:24N 36°30' W 009°17'1212.7
2015-May-17 02:27N 36°37' W 009°29'2513.1
2015-May-17 00:33N 36°59' W 009°42'1414.0
2015-May-16 23:33N 37°13' W 009°46'1414.0
2015-May-16 22:33N 37°27' W 009°50'1414.2
2015-May-16 21:33N 37°41' W 009°54'1413.9
2015-May-16 20:33N 37°54' W 009°58'1414.0
2015-May-16 19:33N 38°08' W 010°02'1414.3
2015-May-16 18:33N 38°22' W 010°06'1414.2
2015-May-16 17:32N 38°36' W 010°11'1414.1
2015-May-16 16:32N 38°50' W 010°12'1414.5
2015-May-16 15:33N 39°04' W 010°12'  
2015-May-14 00:32N 49°53' W 003°17'1413.4
2015-May-13 23:29N 49°59' W 002°58'1714.9
2015-May-13 22:22N 50°03' W 002°32'1315.9
2015-May-13 21:34N 50°07' W 002°13'  
Track history (hours):
 
Tides and Currents Weather Stations Pressure Air Temp Water Temp Dewpoint Dewpoint Depression Visibility Wind Speed Wind Dir Waves Ship Positions

Mid Fortune

Last reported at 2015-May-23 21:33 UTC. Time now 2015-May-28 01:55 UTC.
Position N 31°17' E 032°20'.

Length 147 m; draft 9.7 m.

Type: Tanker. MMSI: 319182000.

Date/timePositionNaut miles runAvg speedWind from/ knotsBaromVisibWave heightAir tempDewpointWater temp
2015-May-23 21:33N 31°17' E 032°20'5 5.2
2015-May-23 20:33N 31°22' E 032°19'1 0.5
2015-May-23 19:31N 31°21' E 032°18'0 0.0
2015-May-23 18:29N 31°21' E 032°18'0 0.0
2015-May-23 17:28N 31°21' E 032°18'0 0.0
2015-May-23 16:31N 31°21' E 032°18'0 0.0
2015-May-23 15:32N 31°21' E 032°18'0 0.0
2015-May-23 14:13N 31°21' E 032°18'0 0.1
2015-May-23 13:33N 31°22' E 032°18'7 5.8
2015-May-23 12:25N 31°28' E 032°15'1113.4
2015-May-23 11:33N 31°37' E 032°07'1414.3
2015-May-23 10:33N 31°47' E 031°55'1514.7
2015-May-23 09:33N 31°55' E 031°40'4314.1
2015-May-23 06:30N 32°17' E 030°56'1313.6
2015-May-23 05:33N 32°22' E 030°43'1414.1
2015-May-23 04:33N 32°28' E 030°28'1914.3
2015-May-23 03:15N 32°37' E 030°08'1014.1
2015-May-23 02:33N 32°41' E 029°57'1414.0
2015-May-23 01:33N 32°47' E 029°42'1414.0
2015-May-23 00:32N 32°54' E 029°27'59414.1
2015-May-21 06:26N 35°32' E 017°55'1213.8
2015-May-21 05:33N 35°35' E 017°40'1613.4
2015-May-21 04:21N 35°39' E 017°21'1213.4
2015-May-21 03:26N 35°42' E 017°06'1213.4
2015-May-21 02:33N 35°45' E 016°52'1313.5
2015-May-21 01:33N 35°48' E 016°36'1313.4
2015-May-21 00:33N 35°52' E 016°20'1413.7
2015-May-20 23:33N 35°55' E 016°04'1413.7
2015-May-20 22:33N 35°59' E 015°48'1414.0
2015-May-20 21:33N 36°02' E 015°31'1414.4
2015-May-20 20:33N 36°06' E 015°14'1414.0
2015-May-20 19:33N 36°09' E 014°57'1413.8
2015-May-20 18:33N 36°13' E 014°40'1413.7
2015-May-20 17:33N 36°16' E 014°24'1413.9
2015-May-20 16:33N 36°20' E 014°07'1414.1
2015-May-20 15:33N 36°23' E 013°50'1414.1
2015-May-20 14:33N 36°26' E 013°33'1413.6
2015-May-20 13:33N 36°30' E 013°17'1313.5
2015-May-20 12:33N 36°35' E 013°01'2013.5
2015-May-20 11:06N 36°44' E 012°39'16714.0
2015-May-19 23:08N 37°38' E 009°21'2314.1
2015-May-19 21:30N 37°40' E 008°52'1212.9
2015-May-19 20:34N 37°39' E 008°36'1413.3
2015-May-19 19:33N 37°38' E 008°19'3014.6
2015-May-19 17:29N 37°36' E 007°42'16413.7
2015-May-19 05:32N 37°24' E 004°16'1514.9
2015-May-19 04:31N 37°23' E 003°56'4314.4
2015-May-19 01:30N 37°18' E 003°02'4914.3
2015-May-18 22:05N 37°09' E 002°02'815.0
2015-May-18 21:33N 37°07' E 001°52'1714.2
2015-May-18 20:20N 37°03' E 001°31'1113.4
2015-May-18 19:33N 37°00' E 001°18'1413.3
2015-May-18 18:28N 36°57' E 001°01'1513.1
2015-May-18 17:19N 36°54' E 000°42'1213.0
2015-May-18 16:26N 36°52' E 000°28'1112.9
2015-May-18 15:33N 36°49' E 000°14'1312.9
2015-May-18 14:33N 36°46' W 000°02'3112.9
2015-May-18 12:07N 36°39' W 000°39'3513.4
2015-May-18 09:30N 36°31' W 001°22'3912.8
2015-May-18 06:28N 36°22' W 002°09'1213.0
2015-May-18 05:33N 36°20' W 002°24'1212.3
2015-May-18 04:33N 36°18' W 002°39'1312.2
2015-May-18 03:29N 36°17' W 002°55'1212.3
2015-May-18 02:33N 36°16' W 003°09'9813.8
2015-May-17 19:29N 36°00' W 005°09'1314.7
2015-May-17 18:34N 35°58' W 005°25'13912.6
2015-May-17 07:28N 36°17' W 008°16'2612.3
2015-May-17 05:21N 36°23' W 008°47'1412.4
2015-May-17 04:16N 36°27' W 009°04'1112.9
2015-May-17 03:24N 36°30' W 009°17'1212.7
2015-May-17 02:27N 36°37' W 009°29'2513.1
2015-May-17 00:33N 36°59' W 009°42'1414.0
2015-May-16 23:33N 37°13' W 009°46'1414.0
2015-May-16 22:33N 37°27' W 009°50'1414.2
2015-May-16 21:33N 37°41' W 009°54'1413.9
2015-May-16 20:33N 37°54' W 009°58'1414.0
2015-May-16 19:33N 38°08' W 010°02'1414.3
2015-May-16 18:33N 38°22' W 010°06'1414.2
2015-May-16 17:32N 38°36' W 010°11'1414.1
2015-May-16 16:32N 38°50' W 010°12'1414.5
2015-May-16 15:33N 39°04' W 010°12'  
2015-May-14 00:32N 49°53' W 003°17'1413.4
2015-May-13 23:29N 49°59' W 002°58'1714.9
2015-May-13 22:22N 50°03' W 002°32'1315.9
2015-May-13 21:34N 50°07' W 002°13'  

Dump ship's entire track history